Time;durP1;ratioP1;P1;durP2;ratioP2;P2;SDS_P1;SDS_P2;PMS_P1;PMS_P2;Temp;Humidity;BMP_temperature;BMP_pressure;BME280_temperature;BME280_humidity;BME280_pressure;Samples;Min_cycle;Max_cycle;Signal;HPM_P1;HPM_P2
2023/02/12 00:00:40;;;;;;;22.83;9.07;;;7.10;99.90;;;;;;4861961;29;20041;-88
2023/02/12 00:03:06;;;;;;;12.88;7.35;;;7.00;99.90;;;;;;4862674;29;20438;-88
2023/02/12 00:05:32;;;;;;;23.38;10.50;;;7.10;99.90;;;;;;4861605;29;20045;-88
2023/02/12 00:07:58;;;;;;;20.77;8.73;;;7.10;99.90;;;;;;4877850;29;20049;-87
2023/02/12 00:10:24;;;;;;;15.73;8.90;;;7.00;99.90;;;;;;4861788;29;20037;-87
2023/02/12 00:12:52;;;;;;;20.13;10.27;;;7.10;99.90;;;;;;4879115;29;20187;-88
2023/02/12 00:15:18;;;;;;;20.77;9.73;;;7.00;99.90;;;;;;4881447;29;20045;-88
2023/02/12 00:17:43;;;;;;;23.75;10.23;;;7.00;99.90;;;;;;4866064;29;20044;-87
2023/02/12 00:20:09;;;;;;;21.73;10.50;;;7.10;99.90;;;;;;4864827;29;20485;-87
2023/02/12 00:22:35;;;;;;;18.33;10.23;;;7.00;99.90;;;;;;4881237;29;20132;-88
2023/02/12 00:25:01;;;;;;;13.32;7.75;;;7.00;99.90;;;;;;4865550;29;20127;-88
2023/02/12 00:27:26;;;;;;;18.75;9.07;;;7.00;99.90;;;;;;4865398;29;20045;-87
2023/02/12 00:29:52;;;;;;;15.40;7.43;;;7.00;99.90;;;;;;4864987;29;20049;-88
2023/02/12 00:32:18;;;;;;;21.75;10.77;;;7.00;99.90;;;;;;4865521;29;20096;-87
2023/02/12 00:34:47;;;;;;;12.57;7.50;;;7.00;99.90;;;;;;4864600;29;20049;-87
2023/02/12 00:37:15;;;;;;;20.60;10.73;;;7.00;99.90;;;;;;4881789;29;20508;-88
2023/02/12 00:39:41;;;;;;;13.80;7.85;;;7.00;99.90;;;;;;4865675;29;20053;-87
2023/02/12 00:42:07;;;;;;;18.75;9.90;;;7.00;99.90;;;;;;4865143;29;20401;-88
2023/02/12 00:44:33;;;;;;;12.55;7.85;;;6.90;99.90;;;;;;4865261;29;20049;-88
2023/02/12 00:47:01;;;;;;;17.75;10.20;;;6.90;99.90;;;;;;4865390;29;20041;-87
2023/02/12 00:49:28;;;;;;;15.35;9.63;;;7.00;99.90;;;;;;4880891;29;20048;-87
2023/02/12 00:51:53;;;;;;;17.30;9.80;;;6.90;99.90;;;;;;4865347;29;20061;-87
2023/02/12 00:54:19;;;;;;;18.00;9.32;;;6.90;99.90;;;;;;4879913;29;20053;-88
2023/02/12 00:56:45;;;;;;;23.48;11.57;;;6.90;99.90;;;;;;4864907;29;20052;-88
2023/02/12 00:59:10;;;;;;;28.52;13.77;;;7.00;99.90;;;;;;4882197;29;20041;-87
2023/02/12 01:01:36;;;;;;;17.63;9.70;;;6.90;99.90;;;;;;4864708;29;20049;-88
2023/02/12 01:04:01;;;;;;;15.98;8.77;;;7.00;99.90;;;;;;4864399;29;20052;-89
2023/02/12 01:06:27;;;;;;;15.95;9.35;;;6.90;99.90;;;;;;4864697;29;20049;-88
2023/02/12 01:08:53;;;;;;;19.77;10.20;;;6.90;99.90;;;;;;4865993;29;20427;-88
2023/02/12 01:11:18;;;;;;;18.10;9.43;;;6.90;99.90;;;;;;4863570;29;20044;-88
2023/02/12 01:13:44;;;;;;;19.88;10.40;;;6.90;99.90;;;;;;4864612;29;20148;-88
2023/02/12 01:16:14;;;;;;;16.58;9.80;;;6.90;99.90;;;;;;4864993;29;20079;-88
2023/02/12 01:18:40;;;;;;;26.73;13.02;;;6.90;99.90;;;;;;4864189;29;20046;-88
2023/02/12 01:21:19;;;;;;;22.02;12.65;;;6.90;99.90;;;;;;4881835;29;20051;-88
2023/02/12 01:23:45;;;;;;;29.02;14.07;;;6.90;99.90;;;;;;4865022;29;20049;-88
2023/02/12 01:26:11;;;;;;;23.13;13.55;;;6.90;99.90;;;;;;4879435;29;20087;-88
2023/02/12 01:28:41;;;;;;;16.52;10.75;;;6.80;99.90;;;;;;4864334;29;20096;-88
2023/02/12 01:31:12;;;;;;;17.92;10.60;;;6.80;99.90;;;;;;4863561;29;20144;-88
2023/02/12 01:33:45;;;;;;;;;;;6.80;99.90;;;;;;4882150;29;20052;-88
2023/02/12 01:36:11;;;;;;;27.90;12.77;;;6.80;99.90;;;;;;4880989;29;19951;-88
2023/02/12 01:38:37;;;;;;;29.30;13.75;;;6.80;99.90;;;;;;4880461;29;20036;-88
2023/02/12 01:41:08;;;;;;;15.32;9.68;;;6.80;99.90;;;;;;4880641;29;20044;-88
2023/02/12 01:43:35;;;;;;;20.63;10.75;;;6.80;99.90;;;;;;4846658;29;20088;-88
2023/02/12 01:46:02;;;;;;;21.58;11.60;;;6.80;99.90;;;;;;4851637;29;20501;-88
2023/02/12 01:48:35;;;;;;;20.02;11.63;;;6.80;99.90;;;;;;4864414;29;20084;-88
2023/02/12 01:51:05;;;;;;;23.52;12.25;;;6.80;99.90;;;;;;4863814;29;20045;-87
2023/02/12 01:53:40;;;;;;;31.20;14.85;;;6.80;99.90;;;;;;4862545;29;20861;-88
2023/02/12 01:56:08;;;;;;;28.55;13.43;;;6.80;99.90;;;;;;4864168;29;20084;-88
2023/02/12 01:58:37;;;;;;;18.65;10.68;;;6.80;99.90;;;;;;4880952;29;20120;-88
2023/02/12 02:01:06;;;;;;;21.23;11.73;;;6.80;99.90;;;;;;4862942;29;20057;-88
2023/02/12 02:03:34;;;;;;;26.35;12.63;;;6.80;99.90;;;;;;4880530;29;20123;-88
2023/02/12 02:06:11;;;;;;;18.98;10.18;;;6.70;99.90;;;;;;4863253;29;20076;-87
2023/02/12 02:08:37;;;;;;;18.20;11.80;;;6.80;99.90;;;;;;4880396;29;20048;-88
2023/02/12 02:14:31;;;;;;;16.77;10.30;;;6.80;99.90;;;;;;4863412;29;20071;-88
2023/02/12 02:16:34;;;;;;;18.30;10.50;;;6.70;99.90;;;;;;4879808;29;20053;-88
2023/02/12 02:19:42;;;;;;;16.88;10.48;;;6.70;99.90;;;;;;4864624;29;20477;-88
2023/02/12 02:22:24;;;;;;;17.50;11.52;;;6.70;99.90;;;;;;4830268;29;20455;-88
2023/02/12 02:25:08;;;;;;;15.85;10.18;;;6.70;99.90;;;;;;4863651;29;20193;-88
2023/02/12 02:28:05;;;;;;;17.58;10.95;;;6.70;99.90;;;;;;4872780;29;20056;-88
2023/02/12 02:30:44;;;;;;;14.90;9.70;;;6.80;99.90;;;;;;4860779;29;20147;-88
2023/02/12 02:33:37;;;;;;;18.95;11.10;;;6.70;99.90;;;;;;4864052;29;20056;-88
2023/02/12 02:36:14;;;;;;;16.30;10.07;;;6.70;99.90;;;;;;4862468;29;20053;-88
2023/02/12 02:38:43;;;;;;;16.88;10.43;;;6.70;99.90;;;;;;4863345;29;20040;-88
2023/02/12 02:41:27;;;;;;;18.75;12.02;;;6.70;99.90;;;;;;4863207;29;20056;-87
2023/02/12 02:43:54;;;;;;;15.32;10.40;;;6.70;99.90;;;;;;4863529;29;20123;-87
2023/02/12 02:46:27;;;;;;;17.17;11.15;;;6.70;99.90;;;;;;4879849;29;20058;-88
2023/02/12 02:48:59;;;;;;;16.42;10.63;;;6.70;99.90;;;;;;4879113;29;20398;-88
2023/02/12 02:51:29;;;;;;;16.80;11.05;;;6.70;99.90;;;;;;4879368;29;20057;-88
2023/02/12 02:54:04;;;;;;;17.10;10.52;;;6.70;99.90;;;;;;4879309;29;20055;-88
2023/02/12 02:56:34;;;;;;;14.68;10.48;;;6.70;99.90;;;;;;4878624;29;20045;-89
2023/02/12 02:59:15;;;;;;;15.40;10.48;;;6.70;99.90;;;;;;4879940;29;20052;-88
2023/02/12 03:02:03;;;;;;;20.55;11.32;;;6.70;99.90;;;;;;4863605;29;20147;-88
2023/02/12 03:04:56;;;;;;;17.92;10.02;;;6.70;99.90;;;;;;4878312;29;20037;-88
2023/02/12 03:07:35;;;;;;;19.35;10.52;;;6.70;99.90;;;;;;4879754;29;20109;-88
2023/02/12 03:10:11;;;;;;;19.52;11.02;;;6.70;99.90;;;;;;4879044;29;20056;-88
2023/02/12 03:12:50;;;;;;;15.45;9.95;;;6.70;99.90;;;;;;4844459;29;20053;-88
2023/02/12 03:15:37;;;;;;;21.02;11.45;;;6.70;99.90;;;;;;4872369;29;20063;-88
2023/02/12 03:18:09;;;;;;;19.60;10.63;;;6.70;99.90;;;;;;4861841;29;20053;-89
2023/02/12 03:20:43;;;;;;;16.55;10.55;;;6.70;99.90;;;;;;4862567;29;20060;-89
2023/02/12 03:23:18;;;;;;;15.60;9.82;;;6.70;99.90;;;;;;4863135;29;20068;-88
2023/02/12 03:25:52;;;;;;;15.85;10.13;;;6.60;99.90;;;;;;4861873;29;20053;-87
2023/02/12 03:28:24;;;;;;;15.55;9.70;;;6.70;99.90;;;;;;4862492;29;20098;-88
2023/02/12 03:31:20;;;;;;;21.13;10.77;;;6.70;99.90;;;;;;4862402;29;20047;-88
2023/02/12 03:34:18;;;;;;;15.60;9.88;;;6.60;99.90;;;;;;4872360;29;20048;-88
2023/02/12 03:36:43;;;;;;;15.57;9.45;;;6.60;99.90;;;;;;4857081;29;20405;-88
2023/02/12 03:39:37;;;;;;;14.27;9.98;;;6.60;99.90;;;;;;4862815;29;20055;-87
2023/02/12 03:42:17;;;;;;;18.55;10.70;;;6.60;99.90;;;;;;4850865;29;20510;-88
2023/02/12 03:45:03;;;;;;;16.40;10.02;;;6.60;99.90;;;;;;4862577;29;20052;-87
2023/02/12 03:47:58;;;;;;;14.77;10.32;;;6.60;99.90;;;;;;4876130;29;20155;-88
2023/02/12 03:50:45;;;;;;;18.33;10.50;;;6.60;99.90;;;;;;4844846;29;20499;-87
2023/02/12 03:53:11;;;;;;;16.40;10.73;;;6.60;99.90;;;;;;4855364;29;20045;-87
2023/02/12 03:55:41;;;;;;;26.90;12.07;;;6.60;99.90;;;;;;4862557;29;20049;-88
2023/02/12 03:58:11;;;;;;;16.27;9.88;;;6.60;99.90;;;;;;4862772;29;20124;-88
2023/02/12 04:00:38;;;;;;;14.10;9.95;;;6.60;99.90;;;;;;4861822;29;20075;-87
2023/02/12 04:03:05;;;;;;;15.43;10.25;;;6.60;99.90;;;;;;4862562;29;20053;-88
2023/02/12 04:05:31;;;;;;;15.05;9.50;;;6.60;99.90;;;;;;4862112;29;20865;-87
2023/02/12 04:07:58;;;;;;;14.65;9.63;;;6.60;99.90;;;;;;4878559;29;20048;-87
2023/02/12 04:10:53;;;;;;;15.48;9.75;;;6.70;99.90;;;;;;4878705;29;20049;-87
2023/02/12 04:13:27;;;;;;;15.07;10.13;;;6.60;99.90;;;;;;4861440;29;20053;-88
2023/02/12 04:16:16;;;;;;;15.15;9.38;;;6.60;99.90;;;;;;4879332;29;20128;-88
2023/02/12 04:18:48;;;;;;;11.82;8.75;;;6.60;99.90;;;;;;4863023;29;20053;-88
2023/02/12 04:21:29;;;;;;;15.55;9.20;;;6.60;99.90;;;;;;4861404;29;20108;-88
2023/02/12 04:24:24;;;;;;;14.85;9.95;;;6.60;99.90;;;;;;4851903;29;20049;-89
2023/02/12 04:27:08;;;;;;;15.82;10.15;;;6.60;99.90;;;;;;4877921;29;20123;-88
2023/02/12 04:30:02;;;;;;;17.00;11.13;;;6.60;99.90;;;;;;4862182;29;20056;-89
2023/02/12 04:32:32;;;;;;;;;;;6.60;99.90;;;;;;4862098;29;20482;-89
2023/02/12 04:35:19;;;;;;;14.88;9.88;;;6.50;99.90;;;;;;4861155;29;19971;-88
2023/02/12 04:37:53;;;;;;;14.57;10.07;;;6.50;99.90;;;;;;4875973;29;20054;-88
2023/02/12 04:40:21;;;;;;;23.30;11.88;;;6.60;99.90;;;;;;4878716;29;20427;-88
2023/02/12 04:42:49;;;;;;;15.18;10.02;;;6.60;99.90;;;;;;4861206;29;20057;-88
2023/02/12 04:45:27;;;;;;;16.77;9.55;;;6.60;99.90;;;;;;4878914;29;20056;-88
2023/02/12 04:47:53;;;;;;;15.23;10.45;;;6.60;99.90;;;;;;4852810;29;20049;-88
2023/02/12 04:50:18;;;;;;;15.90;10.30;;;6.60;99.90;;;;;;4877683;29;20125;-88
2023/02/12 04:52:44;;;;;;;32.30;12.65;;;6.60;99.90;;;;;;4860720;29;20498;-88
2023/02/12 04:55:10;;;;;;;18.00;10.85;;;6.60;99.90;;;;;;4877525;29;20061;-89
2023/02/12 04:57:36;;;;;;;28.13;11.02;;;6.60;99.90;;;;;;4878209;29;20048;-88
2023/02/12 05:00:04;;;;;;;15.10;9.63;;;6.50;99.90;;;;;;4862921;29;20049;-88
2023/02/12 05:02:31;;;;;;;18.10;11.70;;;6.60;99.90;;;;;;4869462;29;20036;-88
2023/02/12 05:04:57;;;;;;;34.50;12.15;;;6.50;99.90;;;;;;4865092;29;20044;-88
2023/02/12 05:07:22;;;;;;;21.90;12.07;;;6.60;99.90;;;;;;4880776;29;20533;-87
2023/02/12 05:09:48;;;;;;;40.05;12.02;;;6.50;99.90;;;;;;4864113;29;20056;-87
2023/02/12 05:12:14;;;;;;;19.42;10.98;;;6.50;99.90;;;;;;4864022;29;20409;-86
2023/02/12 05:14:39;;;;;;;22.50;12.25;;;6.60;99.90;;;;;;4864897;29;20450;-87
2023/02/12 05:17:05;;;;;;;18.08;10.15;;;6.50;99.90;;;;;;4864135;29;20481;-87
2023/02/12 05:19:33;;;;;;;26.33;13.80;;;6.50;99.90;;;;;;4880599;29;20049;-88
2023/02/12 05:21:58;;;;;;;16.92;10.23;;;6.50;99.90;;;;;;4865135;29;20406;-88
2023/02/12 05:24:24;;;;;;;15.13;9.90;;;6.50;99.90;;;;;;4863654;29;20044;-88
2023/02/12 05:26:50;;;;;;;23.75;13.43;;;6.50;99.90;;;;;;4864487;29;20053;-88
2023/02/12 05:29:17;;;;;;;26.38;13.80;;;6.50;99.90;;;;;;4864216;29;20037;-88
2023/02/12 05:31:43;;;;;;;30.88;14.23;;;6.50;99.90;;;;;;4863187;29;20052;-88
2023/02/12 05:34:10;;;;;;;16.38;10.50;;;6.50;99.90;;;;;;4864409;29;20049;-88
2023/02/12 05:36:37;;;;;;;25.08;15.13;;;6.50;99.90;;;;;;4864172;29;20089;-88
2023/02/12 05:39:02;;;;;;;23.33;12.18;;;6.50;99.90;;;;;;4863957;29;20131;-88
2023/02/12 05:41:33;;;;;;;18.02;11.63;;;6.50;99.90;;;;;;4881304;29;20104;-88
2023/02/12 05:43:59;;;;;;;16.40;10.32;;;6.50;99.90;;;;;;4873954;29;20375;-88
2023/02/12 05:46:24;;;;;;;25.15;14.50;;;6.50;99.90;;;;;;4863517;29;20049;-88
2023/02/12 05:48:50;;;;;;;29.38;13.55;;;6.50;99.90;;;;;;4879947;29;20045;-88
2023/02/12 05:51:20;;;;;;;21.75;12.45;;;6.40;99.90;;;;;;4862705;29;20053;-88
2023/02/12 05:53:47;;;;;;;22.95;13.15;;;6.50;99.90;;;;;;4879900;29;20053;-88
2023/02/12 05:56:14;;;;;;;16.10;10.55;;;6.40;99.90;;;;;;4880592;29;20052;-88
2023/02/12 05:58:43;;;;;;;22.67;13.45;;;6.40;99.90;;;;;;4863343;29;20136;-88
2023/02/12 06:01:12;;;;;;;18.42;11.10;;;6.40;99.90;;;;;;4863798;29;20033;-89
2023/02/12 06:03:38;;;;;;;21.15;13.00;;;6.40;99.90;;;;;;4880419;29;20516;-89
2023/02/12 06:06:04;;;;;;;18.98;10.98;;;6.40;99.90;;;;;;4879367;29;20049;-89
2023/02/12 06:08:30;;;;;;;27.38;14.43;;;6.40;99.90;;;;;;4863232;23;20129;-89
2023/02/12 06:11:00;;;;;;;19.67;12.27;;;6.40;99.90;;;;;;4842071;29;20511;-89
2023/02/12 06:13:25;;;;;;;25.80;15.07;;;6.40;99.90;;;;;;4826156;29;20056;-89
2023/02/12 06:15:51;;;;;;;17.48;11.18;;;6.40;99.90;;;;;;4842005;29;20490;-89
2023/02/12 06:18:16;;;;;;;17.30;11.68;;;6.40;99.90;;;;;;4842677;29;20041;-89
2023/02/12 06:20:42;;;;;;;30.60;14.88;;;6.40;99.90;;;;;;4842754;29;20046;-89
2023/02/12 06:23:08;;;;;;;18.38;11.18;;;6.40;99.90;;;;;;4843481;29;20049;-89
2023/02/12 06:25:33;;;;;;;23.25;12.98;;;6.40;99.90;;;;;;4823926;29;20081;-88
2023/02/12 06:27:59;;;;;;;19.27;10.93;;;6.40;99.90;;;;;;4833927;29;20045;-89
2023/02/12 06:30:24;;;;;;;19.30;11.27;;;6.50;99.90;;;;;;4842383;29;20063;-89
2023/02/12 06:32:50;;;;;;;19.30;11.52;;;6.40;99.90;;;;;;4826578;29;20081;-89
2023/02/12 06:35:16;;;;;;;26.30;13.88;;;6.40;99.90;;;;;;4824986;29;20046;-88
2023/02/12 06:37:41;;;;;;;20.67;12.27;;;6.40;99.90;;;;;;4826842;29;20050;-88
2023/02/12 06:40:07;;;;;;;21.15;13.15;;;6.40;99.90;;;;;;4826591;29;20045;-89
2023/02/12 06:42:33;;;;;;;18.98;12.05;;;6.40;99.90;;;;;;4841414;29;20057;-89
2023/02/12 06:45:02;;;;;;;26.50;14.55;;;6.40;99.90;;;;;;4826420;29;20050;-88
2023/02/12 06:47:28;;;;;;;23.58;12.88;;;6.40;99.90;;;;;;4841404;29;20042;-88
2023/02/12 06:49:56;;;;;;;20.83;11.52;;;6.40;99.90;;;;;;4841816;29;20152;-89
2023/02/12 06:52:22;;;;;;;18.80;11.88;;;6.40;99.90;;;;;;4823963;29;20033;-88
2023/02/12 06:54:47;;;;;;;22.58;13.10;;;6.40;99.90;;;;;;4830763;29;20118;-89
2023/02/12 06:57:13;;;;;;;20.48;12.30;;;6.40;99.90;;;;;;4840919;29;20061;-89
2023/02/12 06:59:38;;;;;;;26.50;14.55;;;6.30;99.90;;;;;;4842632;29;20428;-88
2023/02/12 07:02:04;;;;;;;19.55;12.35;;;6.40;99.90;;;;;;4833782;29;20048;-88
2023/02/12 07:04:30;;;;;;;20.52;12.63;;;6.30;99.90;;;;;;4829063;29;20776;-87
2023/02/12 07:06:55;;;;;;;20.75;12.05;;;6.40;99.90;;;;;;4842238;29;20086;-87
2023/02/12 07:09:21;;;;;;;22.15;13.30;;;6.40;99.90;;;;;;4827017;29;20053;-87
2023/02/12 07:11:47;;;;;;;29.85;15.50;;;6.40;99.90;;;;;;4828830;29;20042;-88
2023/02/12 07:14:16;;;;;;;23.33;12.30;;;6.30;99.90;;;;;;4826753;29;20472;-87
2023/02/12 07:16:41;;;;;;;20.23;11.75;;;6.40;99.90;;;;;;4843427;29;20045;-87
2023/02/12 07:19:08;;;;;;;18.98;11.38;;;6.40;99.90;;;;;;4841966;29;20056;-87
2023/02/12 07:21:34;;;;;;;29.85;14.60;;;6.40;99.90;;;;;;4824821;29;20058;-86
2023/02/12 07:23:59;;;;;;;20.90;11.80;;;6.30;99.90;;;;;;4824155;29;20114;-87
2023/02/12 07:26:25;;;;;;;22.23;12.10;;;6.30;99.90;;;;;;4825642;29;20041;-87
2023/02/12 07:28:51;;;;;;;26.02;14.15;;;6.30;99.90;;;;;;4842598;29;20045;-90
2023/02/12 07:31:21;;;;;;;36.65;16.02;;;6.40;99.90;;;;;;4825242;29;20120;-90
2023/02/12 07:33:54;;;;;;;23.63;12.32;;;6.40;99.90;;;;;;4827767;29;20487;-95
2023/02/12 07:36:20;;;;;;;20.67;12.25;;;6.40;99.90;;;;;;4841753;29;20053;-93
2023/02/12 07:38:46;;;;;;;16.88;11.32;;;6.30;99.90;;;;;;4826937;29;20487;-92
2023/02/12 07:41:15;;;;;;;32.85;16.98;;;6.40;99.90;;;;;;4841951;29;20042;-89
2023/02/12 07:43:43;;;;;;;27.50;14.75;;;6.40;99.90;;;;;;4842165;29;20053;-91
2023/02/12 07:46:13;;;;;;;33.83;16.13;;;6.40;99.90;;;;;;4826260;29;20042;-90
2023/02/12 07:48:39;;;;;;;33.78;17.05;;;6.40;99.90;;;;;;4842067;29;20113;-88
2023/02/12 07:51:07;;;;;;;23.08;12.70;;;6.40;99.90;;;;;;4824175;29;20046;-89
2023/02/12 07:53:34;;;;;;;38.13;20.05;;;6.40;99.90;;;;;;4826259;29;20053;-87
2023/02/12 07:56:11;;;;;;;23.35;13.20;;;6.40;99.90;;;;;;4841949;29;20086;-88
2023/02/12 07:58:38;;;;;;;26.50;14.25;;;6.40;99.90;;;;;;4825607;29;20057;-87
2023/02/12 08:01:16;;;;;;;29.48;15.82;;;6.40;99.90;;;;;;4826315;29;20065;-88
2023/02/12 08:03:42;;;;;;;29.60;14.98;;;6.40;99.90;;;;;;4842362;29;20411;-89
2023/02/12 08:06:22;;;;;;;36.20;17.92;;;6.40;99.90;;;;;;4825786;29;20048;-89
2023/02/12 08:08:50;;;;;;;28.75;15.57;;;6.40;99.90;;;;;;4842248;29;20058;-88
2023/02/12 08:11:17;;;;;;;19.35;11.57;;;6.40;99.90;;;;;;4825223;29;20049;-89
2023/02/12 08:13:43;;;;;;;21.05;12.55;;;6.40;99.90;;;;;;4823929;29;20042;-89
2023/02/12 08:16:20;;;;;;;24.75;14.00;;;6.40;99.90;;;;;;4841947;29;20046;-90
2023/02/12 08:18:47;;;;;;;28.83;16.52;;;6.50;99.90;;;;;;4842551;29;20073;-89
2023/02/12 08:30:04;;;;;;;33.13;17.40;;;6.40;99.90;;;;;;5516534;23;20118;-89
2023/02/12 08:32:34;;;;;;;21.00;12.45;;;6.50;99.90;;;;;;4870021;29;20053;-88
2023/02/12 08:35:08;;;;;;;22.80;12.75;;;6.50;99.90;;;;;;4879653;29;20053;-89
2023/02/12 08:37:43;;;;;;;29.10;15.77;;;6.50;99.90;;;;;;4870617;29;21609;-89
2023/02/12 08:43:54;;;;;;;39.17;20.02;;;6.50;99.90;;;;;;4974082;23;20524;-88
2023/02/12 08:46:23;;;;;;;37.15;19.38;;;6.50;99.90;;;;;;4872741;29;20051;-89
2023/02/12 08:48:52;;;;;;;31.85;16.52;;;6.50;99.90;;;;;;4876820;29;20056;-89
2023/02/12 08:51:23;;;;;;;42.30;22.00;;;6.60;99.90;;;;;;4875071;29;20032;-95
2023/02/12 08:53:54;;;;;;;38.40;20.38;;;6.60;99.90;;;;;;4883498;29;20039;-89
2023/02/12 08:56:20;;;;;;;42.58;21.85;;;6.60;99.90;;;;;;4873641;29;20068;-92
2023/02/12 08:58:47;;;;;;;38.25;20.55;;;6.60;99.90;;;;;;4867146;29;20123;-90
2023/02/12 09:01:19;;;;;;;35.25;18.30;;;6.60;99.90;;;;;;4875068;29;20049;-91
2023/02/12 09:03:46;;;;;;;26.95;16.25;;;6.70;99.90;;;;;;4887348;29;20049;-91
2023/02/12 09:06:13;;;;;;;42.10;21.10;;;6.70;99.90;;;;;;4866458;29;20078;-91
2023/02/12 09:08:44;;;;;;;34.40;19.42;;;6.70;99.90;;;;;;4882883;29;20053;-91
2023/02/12 09:11:12;;;;;;;43.70;22.52;;;6.70;99.90;;;;;;4873891;29;20032;-91
2023/02/12 09:13:45;;;;;;;42.58;21.60;;;6.70;99.90;;;;;;4879184;29;20052;-88
2023/02/12 09:16:16;;;;;;;41.83;21.60;;;6.70;99.90;;;;;;4883794;29;20048;-90
2023/02/12 09:18:42;;;;;;;42.97;22.50;;;6.80;99.90;;;;;;4881803;29;20068;-90
2023/02/12 09:21:10;;;;;;;39.92;21.05;;;6.80;99.90;;;;;;4881573;29;20049;-88
2023/02/12 09:23:36;;;;;;;43.53;22.58;;;6.80;99.90;;;;;;4885025;29;20045;-88
2023/02/12 09:26:07;;;;;;;43.50;20.85;;;6.80;99.90;;;;;;4868730;29;20092;-88
2023/02/12 09:28:33;;;;;;;42.80;21.42;;;6.90;99.90;;;;;;4874907;29;20045;-88
2023/02/12 09:31:04;;;;;;;37.63;19.92;;;6.90;99.90;;;;;;4869708;29;20056;-88
2023/02/12 09:33:29;;;;;;;38.90;20.75;;;6.90;99.90;;;;;;4872842;29;20494;-88
2023/02/12 09:35:59;;;;;;;42.35;20.55;;;7.00;99.90;;;;;;4874764;29;20056;-89
2023/02/12 09:38:25;;;;;;;42.20;21.33;;;7.00;99.90;;;;;;4870213;29;20044;-89
2023/02/12 09:40:53;;;;;;;38.20;19.85;;;7.00;99.90;;;;;;4885756;29;20057;-89
2023/02/12 09:43:56;;;;;;;43.00;21.88;;;7.00;99.90;;;;;;4884755;29;20061;-88
2023/02/12 09:46:41;;;;;;;40.80;19.75;;;7.00;99.90;;;;;;4866974;29;20512;-88
2023/02/12 09:49:16;;;;;;;36.80;19.00;;;7.00;99.90;;;;;;4881625;29;20044;-89
2023/02/12 09:51:44;;;;;;;38.83;19.45;;;7.10;99.90;;;;;;4883411;29;20048;-89
2023/02/12 09:54:20;;;;;;;44.63;20.83;;;7.10;99.90;;;;;;4885379;29;20520;-90
2023/02/12 09:56:51;;;;;;;36.58;19.48;;;7.10;99.90;;;;;;4876967;29;20506;-89
2023/02/12 09:59:44;;;;;;;37.83;19.85;;;7.20;99.90;;;;;;4877373;29;20044;-90
2023/02/12 10:02:42;;;;;;;39.25;19.23;;;7.20;99.90;;;;;;4881455;29;20129;-89
2023/02/12 10:05:17;;;;;;;36.08;19.00;;;7.20;99.90;;;;;;4879842;29;20041;-90
2023/02/12 10:07:58;;;;;;;40.35;20.70;;;7.30;99.90;;;;;;4874057;29;20144;-90
2023/02/12 10:10:39;;;;;;;44.58;20.48;;;7.30;99.90;;;;;;4864307;29;20053;-88
2023/02/12 10:13:12;;;;;;;39.22;18.95;;;7.30;99.90;;;;;;4866640;29;20073;-90
2023/02/12 10:15:55;;;;;;;38.33;19.48;;;7.40;99.90;;;;;;4867314;29;20048;-89
2023/02/12 10:19:04;;;;;;;37.95;19.52;;;7.40;99.90;;;;;;4875101;29;20121;-89
2023/02/12 10:21:30;;;;;;;38.50;20.38;;;7.50;99.90;;;;;;4873913;29;20041;-88
2023/02/12 10:24:20;;;;;;;38.25;19.42;;;7.50;99.90;;;;;;4873716;29;20040;-88
2023/02/12 10:26:48;;;;;;;38.00;19.13;;;7.60;99.90;;;;;;4879589;29;20198;-89
2023/02/12 10:29:23;;;;;;;39.45;20.05;;;7.60;99.90;;;;;;4880117;29;20056;-90
2023/02/12 10:31:56;;;;;;;39.17;19.83;;;7.70;99.90;;;;;;4880409;29;20048;-87
2023/02/12 10:34:29;;;;;;;32.92;19.00;;;7.70;99.90;;;;;;4883504;29;20037;-90
2023/02/12 10:37:10;;;;;;;36.03;18.80;;;7.70;99.90;;;;;;4876729;29;20519;-89
2023/02/12 10:39:47;;;;;;;35.75;18.58;;;7.80;99.90;;;;;;4887697;29;20041;-88
2023/02/12 10:42:35;;;;;;;35.25;18.40;;;7.90;99.90;;;;;;4868505;29;20059;-89
2023/02/12 10:45:01;;;;;;;33.17;18.38;;;7.90;99.90;;;;;;4892756;29;20064;-89
2023/02/12 10:47:26;;;;;;;38.65;17.70;;;7.90;99.90;;;;;;4874971;29;20421;-89
2023/02/12 10:49:58;;;;;;;32.65;17.05;;;8.00;99.90;;;;;;4882871;29;20036;-89
2023/02/12 10:52:35;;;;;;;32.70;17.00;;;8.00;99.90;;;;;;4867036;29;20077;-88
2023/02/12 10:55:01;;;;;;;33.33;16.70;;;8.10;99.90;;;;;;4862257;29;20045;-89
2023/02/12 10:57:30;;;;;;;31.15;17.13;;;8.10;99.90;;;;;;4883148;29;20041;-89
2023/02/12 11:00:17;;;;;;;30.05;15.95;;;8.20;99.90;;;;;;4866928;29;20053;-89
2023/02/12 11:03:18;;;;;;;33.63;16.58;;;8.30;99.90;;;;;;4863658;29;20063;-87
2023/02/12 11:05:45;;;;;;;26.92;15.40;;;8.30;99.90;;;;;;4884438;29;20063;-88
2023/02/12 11:08:35;;;;;;;31.30;16.42;;;8.30;99.90;;;;;;4882276;29;20049;-89
2023/02/12 11:11:10;;;;;;;27.70;14.60;;;8.40;99.90;;;;;;4868136;29;20084;-89
2023/02/12 11:13:39;;;;;;;26.05;13.85;;;8.50;99.90;;;;;;4864023;29;20057;-89
2023/02/12 11:16:05;;;;;;;27.65;14.68;;;8.60;99.90;;;;;;4875174;29;20091;-88
2023/02/12 11:18:32;;;;;;;25.70;13.45;;;8.60;99.90;;;;;;4883744;29;20045;-88
2023/02/12 11:21:05;;;;;;;25.42;13.90;;;8.70;99.90;;;;;;4880409;29;20085;-87
2023/02/12 11:23:38;;;;;;;20.63;11.27;;;8.80;99.90;;;;;;4861781;29;20052;-88
2023/02/12 11:26:19;;;;;;;19.85;10.35;;;8.80;99.90;;;;;;4876279;29;20050;-88
2023/02/12 11:28:53;;;;;;;15.40;9.00;;;8.90;99.90;;;;;;4867751;29;20064;-89
2023/02/12 11:31:34;;;;;;;15.55;8.77;;;8.90;99.90;;;;;;4875248;29;20383;-88
2023/02/12 11:34:08;;;;;;;14.82;7.50;;;9.00;99.90;;;;;;4879669;29;20114;-88
2023/02/12 11:36:54;;;;;;;15.13;7.47;;;9.00;99.90;;;;;;4883251;29;20087;-89
2023/02/12 11:39:32;;;;;;;14.00;7.18;;;9.00;99.90;;;;;;4896914;29;20112;-88
2023/02/12 11:42:14;;;;;;;15.13;7.35;;;9.10;99.90;;;;;;4892264;29;20053;-88
2023/02/12 11:44:42;;;;;;;15.30;7.85;;;9.10;99.90;;;;;;4882171;29;20140;-88
2023/02/12 11:47:16;;;;;;;14.23;8.35;;;9.10;99.90;;;;;;4864629;29;20041;-87
2023/02/12 11:49:47;;;;;;;14.35;8.13;;;9.20;99.90;;;;;;4874653;29;20081;-87
2023/02/12 11:52:35;;;;;;;15.10;8.05;;;9.20;99.90;;;;;;4884817;29;20060;-88
2023/02/12 11:55:05;;;;;;;16.98;8.82;;;9.20;99.90;;;;;;4871724;29;20044;-88
2023/02/12 11:57:59;;;;;;;21.23;10.82;;;9.30;99.90;;;;;;4873482;29;20048;-89
2023/02/12 12:00:31;;;;;;;;;;;9.30;99.90;;;;;;4878531;29;20045;-89
2023/02/12 12:03:22;;;;;;;20.70;10.93;;;9.30;99.90;;;;;;4872949;29;19958;-87
2023/02/12 12:05:55;;;;;;;19.77;11.70;;;9.30;99.90;;;;;;4866594;29;20509;-89
2023/02/12 12:08:47;;;;;;;19.20;11.07;;;9.30;99.90;;;;;;4880546;29;20037;-88
2023/02/12 12:11:22;;;;;;;17.42;10.63;;;9.40;99.90;;;;;;4858514;29;20061;-88
2023/02/12 12:14:26;;;;;;;16.70;9.23;;;9.40;99.90;;;;;;4869067;29;20037;-88
2023/02/12 12:20:12;;;;;;;18.52;9.27;;;9.40;99.90;;;;;;4888949;29;20100;-88
2023/02/12 12:23:03;;;;;;;15.93;9.85;;;9.40;99.90;;;;;;4869872;29;20041;-89
2023/02/12 12:25:45;;;;;;;14.32;8.40;;;9.50;99.90;;;;;;4884009;29;20406;-87
2023/02/12 12:28:40;;;;;;;14.95;8.65;;;9.50;99.90;;;;;;4882595;29;20041;-88
2023/02/12 12:31:09;;;;;;;13.93;8.63;;;9.50;99.90;;;;;;4885664;29;20512;-88
2023/02/12 12:33:56;;;;;;;14.18;7.75;;;9.50;99.90;;;;;;4881021;29;20468;-88
2023/02/12 12:36:41;;;;;;;16.35;9.70;;;9.50;99.90;;;;;;4876378;29;20052;-87
2023/02/12 12:39:33;;;;;;;15.35;8.02;;;9.50;99.90;;;;;;4885404;29;20048;-87
2023/02/12 12:42:29;;;;;;;14.95;7.53;;;9.60;99.90;;;;;;4874046;29;20051;-88
2023/02/12 12:45:33;;;;;;;14.30;7.45;;;9.60;99.90;;;;;;4880701;29;20061;-88
2023/02/12 12:48:24;;;;;;;12.85;7.65;;;9.60;99.90;;;;;;4881008;29;20132;-88
2023/02/12 12:51:17;;;;;;;12.30;5.75;;;9.60;99.90;;;;;;4865211;29;20060;-88
2023/02/12 12:53:55;;;;;;;11.30;5.22;;;9.60;99.90;;;;;;4865181;29;20450;-88
2023/02/12 12:56:42;;;;;;;11.32;5.45;;;9.60;99.90;;;;;;4880613;29;20472;-89
2023/02/12 12:59:34;;;;;;;10.40;5.50;;;9.60;99.90;;;;;;4880877;29;20053;-89
2023/02/12 13:02:18;;;;;;;18.83;10.23;;;9.60;99.90;;;;;;4881239;29;20071;-88
2023/02/12 13:05:05;;;;;;;9.00;3.92;;;9.60;99.90;;;;;;4891115;29;20052;-87
2023/02/12 13:07:43;;;;;;;15.55;8.35;;;9.60;99.90;;;;;;4875719;29;20518;-89
2023/02/12 13:10:24;;;;;;;9.23;4.05;;;9.60;99.90;;;;;;4876585;29;20167;-88
2023/02/12 13:13:17;;;;;;;15.73;6.93;;;9.60;99.90;;;;;;4881913;29;20061;-88
2023/02/12 13:16:06;;;;;;;29.92;15.43;;;9.60;99.90;;;;;;4875817;29;20124;-88
2023/02/12 13:18:36;;;;;;;28.50;14.35;;;9.60;99.90;;;;;;4868563;29;20056;-88
2023/02/12 13:21:04;;;;;;;25.52;13.25;;;9.60;99.90;;;;;;4877736;29;20043;-88
2023/02/12 13:23:51;;;;;;;19.90;10.38;;;9.60;99.90;;;;;;4870600;29;20081;-88
2023/02/12 13:26:53;;;;;;;17.90;8.80;;;9.60;99.90;;;;;;4879629;29;20124;-88
2023/02/12 13:29:40;;;;;;;16.85;9.65;;;9.60;99.90;;;;;;4891162;29;20051;-88